createdAt,value
2018-01-18T00:01:34.627Z,69.52
2018-01-18T00:04:06.007Z,69.81
2018-01-18T00:06:35.494Z,69.57
2018-01-18T00:09:06.022Z,69.53
2018-01-18T00:11:35.638Z,69.65
2018-01-18T00:14:05.592Z,69.57
2018-01-18T00:16:35.708Z,69.71
2018-01-18T00:19:05.274Z,69.71
2018-01-18T00:21:34.451Z,69.69
2018-01-18T00:24:04.944Z,69.63
2018-01-18T00:26:34.402Z,70.03
2018-01-18T00:29:03.713Z,70.26
2018-01-18T00:31:32.912Z,70.86
2018-01-18T00:34:03.422Z,70.92
2018-01-18T00:36:33.255Z,71.43
2018-01-18T00:39:02.610Z,71.69
2018-01-18T00:41:32.055Z,72.10
2018-01-18T00:44:01.912Z,72.13
2018-01-18T00:46:31.098Z,72.42
2018-01-18T00:49:00.754Z,73.09
2018-01-18T00:51:30.921Z,73.00
2018-01-18T00:54:00.179Z,73.11
2018-01-18T00:56:30.311Z,73.82
2018-01-18T00:58:59.430Z,73.73
2018-01-18T01:01:28.575Z,74.47
2018-01-18T01:03:58.075Z,74.55
2018-01-18T01:06:27.217Z,74.72
2018-01-18T01:08:56.605Z,74.98
2018-01-18T01:11:26.371Z,75.46
2018-01-18T01:13:55.543Z,75.76
2018-01-18T01:16:24.661Z,76.30
2018-01-18T01:18:54.110Z,76.36
2018-01-18T01:21:23.309Z,76.40
2018-01-18T01:23:52.430Z,77.03
2018-01-18T01:26:21.867Z,77.16
2018-01-18T01:28:51.046Z,77.63
2018-01-18T01:31:20.200Z,77.84
2018-01-18T01:33:49.724Z,78.04
2018-01-18T01:36:18.925Z,78.24
2018-01-18T01:38:48.094Z,78.12
2018-01-18T01:41:17.589Z,78.09
2018-01-18T01:43:46.732Z,78.41
2018-01-18T01:46:15.865Z,78.39
2018-01-18T01:48:45.328Z,78.78
2018-01-18T01:51:14.498Z,78.64
2018-01-18T01:53:43.686Z,78.64
2018-01-18T01:56:13.138Z,78.66
2018-01-18T01:58:42.242Z,78.56
2018-01-18T02:01:11.372Z,78.67
2018-01-18T02:03:40.527Z,78.37
2018-01-18T02:06:09.732Z,78.24
2018-01-18T02:08:38.871Z,78.00
2018-01-18T02:11:08.445Z,78.12
2018-01-18T02:13:37.567Z,77.90
2018-01-18T02:16:06.765Z,77.82
2018-01-18T02:18:35.891Z,77.43
2018-01-18T02:21:05.007Z,77.49
2018-01-18T02:23:34.103Z,77.28
2018-01-18T02:26:04.640Z,77.79
2018-01-18T02:28:33.807Z,77.64
2018-01-18T02:31:03.029Z,77.77
2018-01-18T02:33:32.159Z,78.35
2018-01-18T02:36:01.727Z,78.94
2018-01-18T02:38:30.860Z,79.16
2018-01-18T02:41:01.381Z,79.79
2018-01-18T02:43:30.518Z,80.40
2018-01-18T02:45:59.633Z,80.96
2018-01-18T02:48:29.370Z,81.09
2018-01-18T02:50:58.487Z,81.24
2018-01-18T02:53:27.574Z,81.38
2018-01-18T02:55:56.983Z,81.56
2018-01-18T02:58:26.090Z,81.54
2018-01-18T03:00:55.208Z,81.46
2018-01-18T03:03:24.617Z,81.56
2018-01-18T03:05:53.772Z,81.30
2018-01-18T03:08:22.971Z,81.22
2018-01-18T03:10:52.406Z,81.54
2018-01-18T03:13:21.579Z,81.14
2018-01-18T03:15:50.707Z,80.83
2018-01-18T03:18:20.672Z,81.08
2018-01-18T03:20:49.820Z,81.17
2018-01-18T03:23:18.923Z,80.88
2018-01-18T03:25:48.306Z,80.62
2018-01-18T03:28:17.394Z,80.52
2018-01-18T03:30:46.499Z,80.29
2018-01-18T03:33:15.921Z,80.71
2018-01-18T03:35:45.057Z,80.92
2018-01-18T03:38:14.362Z,80.58
2018-01-18T03:40:43.742Z,80.37
2018-01-18T03:43:12.868Z,80.33
2018-01-18T03:45:41.976Z,80.35
2018-01-18T03:48:11.351Z,80.36
2018-01-18T03:50:40.461Z,80.23
2018-01-18T03:53:09.715Z,80.25
2018-01-18T03:55:39.110Z,80.67
2018-01-18T03:58:08.603Z,80.71
2018-01-18T04:00:37.705Z,80.47
2018-01-18T04:03:07.173Z,80.18
2018-01-18T04:05:36.274Z,80.07
2018-01-18T04:08:05.995Z,79.99
2018-01-18T04:10:35.470Z,79.71
2018-01-18T04:13:04.758Z,79.87
2018-01-18T04:15:34.183Z,79.81
2018-01-18T04:18:03.787Z,79.92
2018-01-18T04:20:33.266Z,80.03
2018-01-18T04:23:02.456Z,80.49
2018-01-18T04:25:31.587Z,80.84
2018-01-18T04:28:00.987Z,80.71
2018-01-18T04:30:30.093Z,80.75
2018-01-18T04:32:59.233Z,80.93
2018-01-18T04:35:28.622Z,81.18
2018-01-18T04:37:57.709Z,81.09
2018-01-18T04:40:26.812Z,81.39
2018-01-18T04:42:55.909Z,81.56
2018-01-18T04:45:25.051Z,81.29
2018-01-18T04:47:54.126Z,80.88
2018-01-18T04:50:23.539Z,81.36
2018-01-18T04:52:52.673Z,81.41
2018-01-18T04:55:21.795Z,81.42
2018-01-18T04:57:51.186Z,81.49
2018-01-18T05:00:20.399Z,81.53
2018-01-18T05:02:49.508Z,81.79
2018-01-18T05:05:18.901Z,81.91
2018-01-18T05:07:48.031Z,82.04
2018-01-18T05:10:17.436Z,82.27
2018-01-18T05:12:46.927Z,82.19
2018-01-18T05:15:16.118Z,82.06
2018-01-18T05:17:45.839Z,82.16
2018-01-18T05:20:14.952Z,82.84
2018-01-18T05:22:44.055Z,83.03
2018-01-18T05:25:13.247Z,83.22
2018-01-18T05:27:42.667Z,83.15
2018-01-18T05:30:11.907Z,82.89
2018-01-18T05:32:41.169Z,83.21
2018-01-18T05:35:11.660Z,83.72
2018-01-18T05:37:40.773Z,83.71
2018-01-18T05:40:09.930Z,83.34
2018-01-18T05:42:39.361Z,83.82
2018-01-18T05:45:08.610Z,83.90
2018-01-18T05:47:37.731Z,84.11
2018-01-18T05:50:07.175Z,84.44
2018-01-18T05:52:36.297Z,84.73
2018-01-18T05:55:05.461Z,84.52
2018-01-18T05:57:34.956Z,84.50
2018-01-18T06:00:05.165Z,84.41
2018-01-18T06:02:34.287Z,84.24
2018-01-18T06:05:03.963Z,84.30
2018-01-18T06:07:33.094Z,84.20
2018-01-18T06:10:03.961Z,83.98
2018-01-18T06:12:34.343Z,84.22
2018-01-18T06:15:03.741Z,84.02
2018-01-18T06:17:32.911Z,84.23
2018-01-18T06:20:03.386Z,84.45
2018-01-18T06:22:32.676Z,84.45
2018-01-18T06:25:02.148Z,84.25
2018-01-18T06:27:31.615Z,84.46
2018-01-18T06:30:00.860Z,84.24
2018-01-18T06:32:30.100Z,84.03
2018-01-18T06:35:04.141Z,83.66
2018-01-18T06:37:37.917Z,84.30
2018-01-18T06:40:07.730Z,84.08
2018-01-18T06:42:37.106Z,83.88
2018-01-18T06:45:06.452Z,83.74
2018-01-18T06:47:37.154Z,83.84
2018-01-18T06:50:06.641Z,83.87
2018-01-18T06:52:36.078Z,83.93
2018-01-18T06:55:05.483Z,83.88
2018-01-18T06:57:34.617Z,83.61
2018-01-18T07:00:06.062Z,83.55
2018-01-18T07:02:35.552Z,83.61
2018-01-18T07:05:04.932Z,83.45
2018-01-18T07:07:34.205Z,83.43
2018-01-18T07:12:45.217Z,83.65
2018-01-18T07:15:14.693Z,83.87
2018-01-18T07:17:44.126Z,83.96
2018-01-18T07:20:13.299Z,84.14
2018-01-18T07:22:42.494Z,84.02
2018-01-18T07:25:11.687Z,84.02
2018-01-18T07:27:40.844Z,83.87
2018-01-18T07:30:10.618Z,83.64
2018-01-18T07:32:39.807Z,83.59
2018-01-18T07:35:09.202Z,83.68
2018-01-18T07:37:38.663Z,83.62
2018-01-18T07:40:08.100Z,83.53
2018-01-18T07:42:37.243Z,83.52
2018-01-18T07:45:06.712Z,83.41
2018-01-18T07:47:36.534Z,83.30
2018-01-18T07:50:06.230Z,83.41
2018-01-18T07:52:35.642Z,83.50
2018-01-18T07:55:05.151Z,83.41
2018-01-18T07:57:34.627Z,83.26
2018-01-18T08:00:04.662Z,82.61
2018-01-18T08:02:34.794Z,82.63
2018-01-18T08:05:05.800Z,82.64
2018-01-18T08:07:36.619Z,82.75
2018-01-18T08:10:06.720Z,82.29
2018-01-18T08:12:36.115Z,81.82
2018-01-18T08:15:05.969Z,82.01
2018-01-18T08:17:35.066Z,81.86
2018-01-18T08:20:05.278Z,81.95
2018-01-18T08:22:34.420Z,81.97
2018-01-18T08:25:04.378Z,82.18
2018-01-18T08:27:34.528Z,82.18
2018-01-18T08:30:04.471Z,82.24
2018-01-18T08:32:33.608Z,82.29
2018-01-18T08:35:03.122Z,82.24
2018-01-18T08:37:32.649Z,81.96
2018-01-18T08:40:03.076Z,82.07
2018-01-18T08:42:32.395Z,82.13
2018-01-18T08:45:01.930Z,82.08
2018-01-18T08:47:31.382Z,81.86
2018-01-18T08:50:00.580Z,81.91
2018-01-18T08:52:29.744Z,82.30
2018-01-18T08:54:59.163Z,82.46
2018-01-18T08:57:28.676Z,82.34
2018-01-18T08:59:57.788Z,81.95
2018-01-18T09:02:27.218Z,82.05
2018-01-18T09:04:56.499Z,81.94
2018-01-18T09:07:27.444Z,81.95
2018-01-18T09:09:56.605Z,81.99
2018-01-18T09:12:25.786Z,82.08
2018-01-18T09:14:54.936Z,81.97
2018-01-18T09:17:24.041Z,81.82
2018-01-18T09:19:53.148Z,81.66
2018-01-18T09:22:23.020Z,81.70
2018-01-18T09:24:52.187Z,81.67
2018-01-18T09:27:21.837Z,81.66
2018-01-18T09:29:51.343Z,81.59
2018-01-18T09:32:20.531Z,81.35
2018-01-18T09:34:49.630Z,81.48
2018-01-18T09:37:19.216Z,81.22
2018-01-18T09:39:48.541Z,80.97
2018-01-18T09:42:17.731Z,80.76
2018-01-18T09:44:47.308Z,80.63
2018-01-18T09:47:18.767Z,80.66
2018-01-18T09:49:47.946Z,80.54
2018-01-18T09:52:17.889Z,80.40
2018-01-18T09:54:47.186Z,80.21
2018-01-18T09:57:16.453Z,79.95
2018-01-18T09:59:45.673Z,79.92
2018-01-18T10:02:14.955Z,79.37
2018-01-18T10:04:44.514Z,78.73
2018-01-18T10:07:13.657Z,78.30
2018-01-18T10:09:42.812Z,77.65
2018-01-18T10:12:13.428Z,76.89
2018-01-18T10:14:42.569Z,75.99
2018-01-18T10:17:11.748Z,74.85
2018-01-18T10:19:41.186Z,74.58
2018-01-18T10:22:10.536Z,73.79
2018-01-18T10:24:39.736Z,73.31
2018-01-18T10:27:09.354Z,73.27
2018-01-18T10:29:38.538Z,72.68
2018-01-18T10:32:08.163Z,72.99
2018-01-18T10:34:38.026Z,73.45
2018-01-18T10:37:07.235Z,72.91
2018-01-18T10:39:36.674Z,73.04
2018-01-18T10:42:05.978Z,72.43
2018-01-18T10:44:35.326Z,71.79
2018-01-18T10:47:04.765Z,71.80
2018-01-18T10:49:33.886Z,71.77
2018-01-18T10:52:04.007Z,71.79
2018-01-18T10:54:33.657Z,71.70
2018-01-18T10:57:03.420Z,71.20
2018-01-18T10:59:33.121Z,71.41
2018-01-18T11:02:04.345Z,71.48
2018-01-18T11:04:35.134Z,70.90
2018-01-18T11:07:04.502Z,70.23
2018-01-18T11:09:33.672Z,70.41
2018-01-18T11:12:03.934Z,69.60
2018-01-18T11:14:33.150Z,68.69
2018-01-18T11:17:03.067Z,67.43
2018-01-18T11:19:32.289Z,67.61
2018-01-18T11:22:02.742Z,67.85
2018-01-18T11:24:31.930Z,68.45
2018-01-18T11:27:01.278Z,68.99
2018-01-18T11:29:30.484Z,69.46
2018-01-18T11:31:59.699Z,69.57
2018-01-18T11:34:29.765Z,69.99
2018-01-18T11:36:59.303Z,71.12
2018-01-18T11:39:28.592Z,71.51
2018-01-18T11:41:57.856Z,70.53
2018-01-18T11:44:27.389Z,70.04
2018-01-18T11:46:56.592Z,69.44
2018-01-18T11:49:25.753Z,68.73
2018-01-18T11:51:54.933Z,68.83
2018-01-18T11:54:24.252Z,68.10
2018-01-18T11:56:53.732Z,66.49
2018-01-18T11:59:24.350Z,63.28
2018-01-18T12:01:53.506Z,61.96
2018-01-18T12:04:23.022Z,60.91
2018-01-18T12:06:52.182Z,59.87
2018-01-18T12:09:21.665Z,59.07
2018-01-18T12:11:51.246Z,58.67
2018-01-18T12:14:20.410Z,58.28
2018-01-18T12:16:49.643Z,58.81
2018-01-18T12:19:19.147Z,57.27
2018-01-18T12:21:48.334Z,58.41
2018-01-18T12:24:19.805Z,58.88
2018-01-18T12:26:49.516Z,59.10
2018-01-18T12:29:18.754Z,59.08
2018-01-18T12:31:47.992Z,58.63
2018-01-18T12:34:17.128Z,58.86
2018-01-18T12:36:46.291Z,58.64
2018-01-18T12:39:16.479Z,57.96
2018-01-18T12:41:45.656Z,58.53
2018-01-18T12:44:16.826Z,58.94
2018-01-18T12:46:46.457Z,57.05
2018-01-18T12:49:15.715Z,56.59
2018-01-18T12:51:44.838Z,57.01
2018-01-18T12:54:14.314Z,57.42
2018-01-18T12:56:43.452Z,57.12
2018-01-18T12:59:13.154Z,57.16
2018-01-18T13:01:42.616Z,57.58
2018-01-18T13:04:13.688Z,58.40
2018-01-18T13:06:42.819Z,58.94
2018-01-18T13:09:12.284Z,59.94
2018-01-18T13:11:41.495Z,60.45
2018-01-18T13:14:11.934Z,61.41
2018-01-18T13:16:41.121Z,61.32
2018-01-18T13:19:10.550Z,60.42
2018-01-18T13:21:40.930Z,59.76
2018-01-18T13:24:10.872Z,59.81
2018-01-18T13:26:40.122Z,60.42
2018-01-18T13:29:09.778Z,60.76
2018-01-18T13:31:40.720Z,60.54
2018-01-18T13:34:10.019Z,59.92
2018-01-18T13:36:39.497Z,59.62
2018-01-18T13:39:08.871Z,59.28
2018-01-18T13:41:38.460Z,58.67
2018-01-18T13:44:07.993Z,56.52
2018-01-18T13:46:37.164Z,54.56
2018-01-18T13:49:06.322Z,54.77
2018-01-18T13:51:36.824Z,52.47
2018-01-18T13:54:06.350Z,51.19
2018-01-18T13:56:35.657Z,49.88
2018-01-18T13:59:04.953Z,50.33
2018-01-18T14:01:34.234Z,49.38
2018-01-18T14:04:05.851Z,49.48
2018-01-18T14:06:36.636Z,48.52
2018-01-18T14:09:07.119Z,48.34
2018-01-18T14:11:37.007Z,47.25
2018-01-18T14:14:06.856Z,47.49
2018-01-18T14:16:36.470Z,47.41
2018-01-18T14:19:05.740Z,47.23
2018-01-18T14:21:35.149Z,47.40
2018-01-18T14:24:06.537Z,47.31
2018-01-18T14:26:35.756Z,46.85
2018-01-18T14:29:04.995Z,47.14
2018-01-18T14:31:34.451Z,47.62
2018-01-18T14:34:04.643Z,47.81
2018-01-18T14:36:36.312Z,46.97
2018-01-18T14:39:06.422Z,46.70
2018-01-18T14:41:36.915Z,46.72
2018-01-18T14:44:06.245Z,46.67
2018-01-18T14:46:35.724Z,47.12
2018-01-18T14:49:05.152Z,46.97
2018-01-18T14:51:34.355Z,47.05
2018-01-18T14:54:05.932Z,47.16
2018-01-18T14:56:35.201Z,47.25
2018-01-18T14:59:04.772Z,47.41
2018-01-18T15:01:34.083Z,47.43
2018-01-18T15:04:05.571Z,47.53
2018-01-18T15:06:36.226Z,47.32
2018-01-18T15:09:05.887Z,47.32
2018-01-18T15:11:35.263Z,47.49
2018-01-18T15:14:06.268Z,47.83
2018-01-18T15:16:35.593Z,47.99
2018-01-18T15:19:04.921Z,48.10
2018-01-18T15:21:34.337Z,48.15
2018-01-18T15:24:04.874Z,48.09
2018-01-18T15:29:14.319Z,48.48
2018-01-18T15:31:48.323Z,49.02
2018-01-18T15:34:18.665Z,49.04
2018-01-18T15:36:48.483Z,48.90
2018-01-18T15:39:17.818Z,48.10
2018-01-18T15:41:47.753Z,48.03
2018-01-18T15:44:16.938Z,48.36
2018-01-18T15:46:46.301Z,48.40
2018-01-18T15:49:15.737Z,48.49
2018-01-18T15:51:44.974Z,48.75
2018-01-18T15:54:15.476Z,49.52
2018-01-18T15:56:44.967Z,49.81
2018-01-18T15:59:14.365Z,50.49
2018-01-18T16:01:43.525Z,50.61
2018-01-18T16:04:13.242Z,51.13
2018-01-18T16:06:42.370Z,51.03
2018-01-18T16:09:11.581Z,50.90
2018-01-18T16:11:41.035Z,50.97
2018-01-18T16:14:10.461Z,51.57
2018-01-18T16:16:39.620Z,51.92
2018-01-18T16:19:08.855Z,51.49
2018-01-18T16:21:39.779Z,50.99
2018-01-18T16:24:09.834Z,50.85
2018-01-18T16:26:39.394Z,50.30
2018-01-18T16:29:08.789Z,49.63
2018-01-18T16:31:38.799Z,49.71
2018-01-18T16:34:08.527Z,49.86
2018-01-18T16:36:37.655Z,50.90
2018-01-18T16:39:07.198Z,51.97
2018-01-18T16:41:36.415Z,52.39
2018-01-18T16:44:06.698Z,53.00
2018-01-18T16:46:36.156Z,53.18
2018-01-18T16:49:05.500Z,53.36
2018-01-18T16:51:34.974Z,53.77
2018-01-18T16:54:05.932Z,52.92
2018-01-18T16:56:35.712Z,52.63
2018-01-18T16:59:05.038Z,51.86
2018-01-18T17:01:34.792Z,52.27
2018-01-18T17:04:05.434Z,51.53
2018-01-18T17:09:05.381Z,51.15
2018-01-18T17:11:34.947Z,50.85
2018-01-18T17:14:05.526Z,50.67
2018-01-18T17:16:35.657Z,50.51
2018-01-18T17:19:04.959Z,50.51
2018-01-18T17:21:34.776Z,50.15
2018-01-18T17:24:06.179Z,50.17
2018-01-18T17:26:35.402Z,50.01
2018-01-18T17:29:06.042Z,50.18
2018-01-18T17:31:36.289Z,50.10
2018-01-18T17:34:10.346Z,50.26
2018-01-18T17:36:40.014Z,50.17
2018-01-18T17:39:11.909Z,50.15
2018-01-18T17:41:41.159Z,50.16
2018-01-18T17:44:10.587Z,50.46
2018-01-18T17:46:39.908Z,50.23
2018-01-18T17:49:09.559Z,50.57
2018-01-18T17:51:39.128Z,50.44
2018-01-18T17:54:08.590Z,50.40
2018-01-18T17:56:38.143Z,50.11
2018-01-18T17:59:07.332Z,50.44
2018-01-18T18:01:36.554Z,50.00
2018-01-18T18:04:07.300Z,50.07
2018-01-18T18:06:36.772Z,50.26
2018-01-18T18:09:06.113Z,50.23
2018-01-18T18:11:36.762Z,50.34
2018-01-18T18:14:07.808Z,50.36
2018-01-18T18:16:39.156Z,50.70
2018-01-18T18:19:08.885Z,50.86
2018-01-18T18:21:40.443Z,51.14
2018-01-18T18:24:12.245Z,51.38
2018-01-18T18:26:42.346Z,51.59
2018-01-18T18:29:11.875Z,52.00
2018-01-18T18:31:41.112Z,52.19
2018-01-18T18:34:12.686Z,52.39
2018-01-18T18:36:42.192Z,52.61
2018-01-18T18:39:11.555Z,52.74
2018-01-18T18:41:40.845Z,53.07
2018-01-18T18:44:10.197Z,53.27
2018-01-18T18:46:39.487Z,53.36
2018-01-18T18:49:09.044Z,53.29
2018-01-18T18:51:38.195Z,53.47
2018-01-18T18:54:07.464Z,53.73
2018-01-18T18:56:37.567Z,53.74
2018-01-18T18:59:06.674Z,53.94
2018-01-18T19:01:36.368Z,54.14
2018-01-18T19:04:06.328Z,54.39
2018-01-18T19:06:35.510Z,54.58
2018-01-18T19:09:05.496Z,54.65
2018-01-18T19:11:35.108Z,54.74
2018-01-18T19:14:06.691Z,55.15
2018-01-18T19:16:36.784Z,55.21
2018-01-18T19:19:06.936Z,55.24
2018-01-18T19:21:36.402Z,55.32
2018-01-18T19:24:06.266Z,55.28
2018-01-18T19:26:36.098Z,55.36
2018-01-18T19:29:05.567Z,55.37
2018-01-18T19:31:34.787Z,55.58
2018-01-18T19:34:04.846Z,56.24
2018-01-18T19:36:34.283Z,56.51
2018-01-18T19:39:03.877Z,56.68
2018-01-18T19:41:33.704Z,57.21
2018-01-18T19:44:05.262Z,57.73
2018-01-18T19:46:34.502Z,58.18
2018-01-18T19:49:04.791Z,58.34
2018-01-18T19:51:35.479Z,58.37
2018-01-18T19:54:05.835Z,58.49
2018-01-18T19:56:35.336Z,58.82
2018-01-18T19:59:04.991Z,59.44
2018-01-18T20:01:34.732Z,60.37
2018-01-18T20:04:05.503Z,61.90
2018-01-18T20:06:34.779Z,62.53
2018-01-18T20:09:05.305Z,63.00
2018-01-18T20:11:36.576Z,63.21
2018-01-18T20:14:06.929Z,64.21
2018-01-18T20:16:36.400Z,64.92
2018-01-18T20:19:05.817Z,65.01
2018-01-18T20:21:35.072Z,65.11
2018-01-18T20:24:05.498Z,65.18
2018-01-18T20:26:34.819Z,65.50
2018-01-18T20:29:04.269Z,66.16
2018-01-18T20:31:33.740Z,66.09
2018-01-18T20:34:04.033Z,65.93
2018-01-18T20:36:33.308Z,65.89
2018-01-18T20:39:03.256Z,65.74
2018-01-18T20:41:32.566Z,65.53
2018-01-18T20:44:02.337Z,65.47
2018-01-18T20:46:31.919Z,65.19
2018-01-18T20:49:01.489Z,65.14
2018-01-18T20:51:30.647Z,65.42
2018-01-18T20:54:00.083Z,65.54
2018-01-18T20:56:30.229Z,65.43
2018-01-18T20:58:59.409Z,65.31
2018-01-18T21:01:28.976Z,65.48
2018-01-18T21:03:58.098Z,65.37
2018-01-18T21:06:27.262Z,65.43
2018-01-18T21:08:56.451Z,65.47
2018-01-18T21:13:53.778Z,65.28
2018-01-18T21:16:23.960Z,65.20
2018-01-18T21:18:53.340Z,65.48
2018-01-18T21:21:22.511Z,65.48
2018-01-18T21:23:52.650Z,66.49
2018-01-18T21:26:22.107Z,66.30
2018-01-18T21:28:51.258Z,66.71
2018-01-18T21:31:21.683Z,67.00
2018-01-18T21:33:51.122Z,67.02
2018-01-18T21:36:20.735Z,67.73
2018-01-18T21:38:49.872Z,68.62
2018-01-18T21:41:20.187Z,68.70
2018-01-18T21:43:49.459Z,68.81
2018-01-18T21:46:18.886Z,69.39
2018-01-18T21:48:48.586Z,69.88
2018-01-18T21:51:17.857Z,69.91
2018-01-18T21:53:46.992Z,71.22
2018-01-18T21:56:16.661Z,71.10
2018-01-18T21:58:46.226Z,71.88
2018-01-18T22:01:15.375Z,72.33
2018-01-18T22:03:45.325Z,72.36
2018-01-18T22:06:14.459Z,72.72
2018-01-18T22:08:43.718Z,73.04
2018-01-18T22:11:13.230Z,73.28
2018-01-18T22:13:42.362Z,73.84
2018-01-18T22:16:11.650Z,74.07
2018-01-18T22:18:41.071Z,73.96
2018-01-18T22:21:10.382Z,73.75
2018-01-18T22:23:39.702Z,73.96
2018-01-18T22:27:11.811Z,73.92
2018-01-18T22:29:40.925Z,73.98
2018-01-18T22:32:10.665Z,74.43
2018-01-18T22:34:39.801Z,74.50
2018-01-18T22:37:09.448Z,74.51
2018-01-18T22:39:38.999Z,74.66
2018-01-18T22:42:08.238Z,75.09
2018-01-18T22:44:37.471Z,74.80
2018-01-18T22:47:06.908Z,74.81
2018-01-18T22:49:36.075Z,74.67
2018-01-18T22:52:05.791Z,75.11
2018-01-18T22:54:35.219Z,75.32
2018-01-18T22:57:04.571Z,74.98
2018-01-18T22:59:33.836Z,75.04
2018-01-18T23:02:04.178Z,74.86
2018-01-18T23:04:33.322Z,75.37
2018-01-18T23:07:02.716Z,75.74
2018-01-18T23:09:31.862Z,75.81
2018-01-18T23:12:01.251Z,76.28
2018-01-18T23:14:30.865Z,77.05
2018-01-18T23:17:01.158Z,78.11
2018-01-18T23:19:30.594Z,79.29
2018-01-18T23:22:00.419Z,80.08
2018-01-18T23:24:30.422Z,80.30
2018-01-18T23:27:00.067Z,80.23
2018-01-18T23:29:29.215Z,80.97
2018-01-18T23:31:58.653Z,80.92
2018-01-18T23:34:28.079Z,80.92
2018-01-18T23:36:57.834Z,80.43
2018-01-18T23:39:26.942Z,80.10
2018-01-18T23:41:56.495Z,79.99
2018-01-18T23:44:26.195Z,80.18
2018-01-18T23:46:55.667Z,80.68
2018-01-18T23:49:25.066Z,77.97
2018-01-18T23:51:54.346Z,77.23
2018-01-18T23:54:23.474Z,77.55
2018-01-18T23:56:52.958Z,78.13
2018-01-18T23:59:22.864Z,77.96
